sensor_id;sensor_type;location;lat;lon;timestamp;pressure;altitude;pressure_sealevel;temperature;humidity
48029;BME280;33808;37.368;127.108;2023-03-15T00:02:26;101140.16;;;12.69;nan
48029;BME280;33808;37.368;127.108;2023-03-15T00:04:56;101074.44;;;12.74;nan
48029;BME280;33808;37.368;127.108;2023-03-15T00:07:26;101105.75;;;13.04;nan
48029;BME280;33808;37.368;127.108;2023-03-15T00:14:54;101107.28;;;13.09;nan
48029;BME280;33808;37.368;127.108;2023-03-15T00:17:23;101093.22;;;13.36;nan
48029;BME280;33808;37.368;127.108;2023-03-15T00:19:53;101094.13;;;13.11;nan
48029;BME280;33808;37.368;127.108;2023-03-15T00:22:23;101092.25;;;13.14;nan
48029;BME280;33808;37.368;127.108;2023-03-15T00:27:21;101083.13;;;13.48;nan
48029;BME280;33808;37.368;127.108;2023-03-15T00:32:20;101088.28;;;13.96;nan
48029;BME280;33808;37.368;127.108;2023-03-15T00:34:50;101094.94;;;13.82;nan
48029;BME280;33808;37.368;127.108;2023-03-15T00:37:22;101119.28;;;13.64;nan
48029;BME280;33808;37.368;127.108;2023-03-15T00:39:53;101108.38;;;13.51;nan
48029;BME280;33808;37.368;127.108;2023-03-15T00:42:23;101104.78;;;13.77;nan
48029;BME280;33808;37.368;127.108;2023-03-15T00:44:55;101078.16;;;13.64;nan
48029;BME280;33808;37.368;127.108;2023-03-15T00:49:54;101108.56;;;13.70;nan
48029;BME280;33808;37.368;127.108;2023-03-15T00:52:23;101091.41;;;13.38;nan
48029;BME280;33808;37.368;127.108;2023-03-15T00:54:54;101100.50;;;13.51;nan
48029;BME280;33808;37.368;127.108;2023-03-15T00:57:24;101089.50;;;13.65;nan
48029;BME280;33808;37.368;127.108;2023-03-15T00:59:53;101096.47;;;13.88;nan
48029;BME280;33808;37.368;127.108;2023-03-15T01:04:52;101103.31;;;14.14;nan
48029;BME280;33808;37.368;127.108;2023-03-15T01:07:22;101107.94;;;14.29;nan
48029;BME280;33808;37.368;127.108;2023-03-15T01:09:52;101111.06;;;14.17;nan
48029;BME280;33808;37.368;127.108;2023-03-15T01:12:21;101095.06;;;14.66;nan
48029;BME280;33808;37.368;127.108;2023-03-15T01:14:51;101095.19;;;14.63;nan
48029;BME280;33808;37.368;127.108;2023-03-15T01:17:20;101096.53;;;14.51;nan
48029;BME280;33808;37.368;127.108;2023-03-15T01:19:50;101093.59;;;14.59;nan
48029;BME280;33808;37.368;127.108;2023-03-15T01:22:20;101129.56;;;14.99;nan
48029;BME280;33808;37.368;127.108;2023-03-15T01:27:19;101092.91;;;14.54;nan
48029;BME280;33808;37.368;127.108;2023-03-15T01:32:17;101077.41;;;14.47;nan
48029;BME280;33808;37.368;127.108;2023-03-15T01:34:47;101085.66;;;14.60;nan
48029;BME280;33808;37.368;127.108;2023-03-15T01:37:17;101091.56;;;14.43;nan
48029;BME280;33808;37.368;127.108;2023-03-15T01:39:48;101084.94;;;14.35;nan
48029;BME280;33808;37.368;127.108;2023-03-15T01:42:17;101098.09;;;14.55;nan
48029;BME280;33808;37.368;127.108;2023-03-15T01:44:56;101112.72;;;14.83;nan
48029;BME280;33808;37.368;127.108;2023-03-15T01:47:28;101079.59;;;14.79;nan
48029;BME280;33808;37.368;127.108;2023-03-15T01:50:07;101092.94;;;14.74;nan
48029;BME280;33808;37.368;127.108;2023-03-15T01:52:40;101130.75;;;14.72;nan
48029;BME280;33808;37.368;127.108;2023-03-15T01:55:14;101095.25;;;15.01;nan
48029;BME280;33808;37.368;127.108;2023-03-15T01:57:46;101085.28;;;14.88;nan
48029;BME280;33808;37.368;127.108;2023-03-15T02:00:19;101078.19;;;14.91;nan
48029;BME280;33808;37.368;127.108;2023-03-15T02:02:54;101080.91;;;14.68;nan
48029;BME280;33808;37.368;127.108;2023-03-15T02:05:27;101079.78;;;14.74;nan
48029;BME280;33808;37.368;127.108;2023-03-15T02:08:01;101080.38;;;14.81;nan
48029;BME280;33808;37.368;127.108;2023-03-15T02:10:47;101071.88;;;14.33;nan
48029;BME280;33808;37.368;127.108;2023-03-15T02:13:19;101065.66;;;14.55;nan
48029;BME280;33808;37.368;127.108;2023-03-15T02:15:52;101085.25;;;14.69;nan
48029;BME280;33808;37.368;127.108;2023-03-15T02:18:23;101082.59;;;14.90;nan
48029;BME280;33808;37.368;127.108;2023-03-15T02:23:42;101042.53;;;14.83;nan
48029;BME280;33808;37.368;127.108;2023-03-15T02:26:24;101070.47;;;15.06;nan
48029;BME280;33808;37.368;127.108;2023-03-15T02:28:57;101073.16;;;15.05;nan
48029;BME280;33808;37.368;127.108;2023-03-15T02:31:27;101070.97;;;15.15;nan
48029;BME280;33808;37.368;127.108;2023-03-15T02:38:56;101074.25;;;15.77;nan
48029;BME280;33808;37.368;127.108;2023-03-15T02:41:34;101056.44;;;15.63;nan
48029;BME280;33808;37.368;127.108;2023-03-15T02:44:09;101051.53;;;15.74;nan
48029;BME280;33808;37.368;127.108;2023-03-15T02:46:41;101069.84;;;15.58;nan
48029;BME280;33808;37.368;127.108;2023-03-15T02:51:41;101066.31;;;15.96;nan
48029;BME280;33808;37.368;127.108;2023-03-15T02:54:11;101078.34;;;16.01;nan
48029;BME280;33808;37.368;127.108;2023-03-15T02:56:41;101073.97;;;15.83;nan
48029;BME280;33808;37.368;127.108;2023-03-15T02:59:10;101070.81;;;15.56;nan
48029;BME280;33808;37.368;127.108;2023-03-15T03:01:40;101069.41;;;15.49;nan
48029;BME280;33808;37.368;127.108;2023-03-15T03:04:13;101072.09;;;15.28;nan
48029;BME280;33808;37.368;127.108;2023-03-15T03:06:43;101075.94;;;15.02;nan
48029;BME280;33808;37.368;127.108;2023-03-15T03:09:13;101076.53;;;15.46;nan
48029;BME280;33808;37.368;127.108;2023-03-15T03:11:43;101061.34;;;15.71;nan
48029;BME280;33808;37.368;127.108;2023-03-15T03:14:12;101059.53;;;15.71;nan
48029;BME280;33808;37.368;127.108;2023-03-15T03:16:42;101061.00;;;15.78;nan
48029;BME280;33808;37.368;127.108;2023-03-15T03:19:12;101054.78;;;16.16;nan
48029;BME280;33808;37.368;127.108;2023-03-15T03:21:42;101052.19;;;15.97;nan
48029;BME280;33808;37.368;127.108;2023-03-15T03:24:12;101043.81;;;15.89;nan
48029;BME280;33808;37.368;127.108;2023-03-15T03:26:44;101047.56;;;16.37;nan
48029;BME280;33808;37.368;127.108;2023-03-15T03:29:16;101019.72;;;16.14;nan
48029;BME280;33808;37.368;127.108;2023-03-15T03:31:46;101025.78;;;16.33;nan
48029;BME280;33808;37.368;127.108;2023-03-15T03:34:15;101036.53;;;16.46;nan
48029;BME280;33808;37.368;127.108;2023-03-15T03:36:45;101050.25;;;16.70;nan
48029;BME280;33808;37.368;127.108;2023-03-15T03:39:16;101031.13;;;16.49;nan
48029;BME280;33808;37.368;127.108;2023-03-15T03:41:46;101033.34;;;16.57;nan
48029;BME280;33808;37.368;127.108;2023-03-15T03:44:16;101047.09;;;16.46;nan
48029;BME280;33808;37.368;127.108;2023-03-15T03:46:46;101038.03;;;16.17;nan
48029;BME280;33808;37.368;127.108;2023-03-15T03:49:16;101049.06;;;16.25;nan
48029;BME280;33808;37.368;127.108;2023-03-15T03:51:45;101022.44;;;16.30;nan
48029;BME280;33808;37.368;127.108;2023-03-15T03:54:15;101033.31;;;16.74;nan
48029;BME280;33808;37.368;127.108;2023-03-15T03:56:44;101027.00;;;16.43;nan
48029;BME280;33808;37.368;127.108;2023-03-15T03:59:14;101021.78;;;16.59;nan
48029;BME280;33808;37.368;127.108;2023-03-15T04:01:44;101005.94;;;16.77;nan
48029;BME280;33808;37.368;127.108;2023-03-15T04:04:13;101018.09;;;16.79;nan
48029;BME280;33808;37.368;127.108;2023-03-15T04:06:43;101021.44;;;16.66;nan
48029;BME280;33808;37.368;127.108;2023-03-15T04:09:15;101018.13;;;16.29;nan
48029;BME280;33808;37.368;127.108;2023-03-15T04:11:44;100999.94;;;16.40;nan
48029;BME280;33808;37.368;127.108;2023-03-15T04:14:14;100990.38;;;16.55;nan
48029;BME280;33808;37.368;127.108;2023-03-15T04:16:44;101001.69;;;16.57;nan
48029;BME280;33808;37.368;127.108;2023-03-15T04:19:14;101020.50;;;16.84;nan
48029;BME280;33808;37.368;127.108;2023-03-15T04:21:43;101010.03;;;16.65;nan
48029;BME280;33808;37.368;127.108;2023-03-15T04:24:15;101001.78;;;16.89;nan
48029;BME280;33808;37.368;127.108;2023-03-15T04:26:44;101008.09;;;17.02;nan
48029;BME280;33808;37.368;127.108;2023-03-15T04:29:14;101016.03;;;17.02;nan
48029;BME280;33808;37.368;127.108;2023-03-15T04:31:44;101022.81;;;16.57;nan
48029;BME280;33808;37.368;127.108;2023-03-15T04:34:13;101000.78;;;16.40;nan
48029;BME280;33808;37.368;127.108;2023-03-15T04:36:43;101015.13;;;16.52;nan
48029;BME280;33808;37.368;127.108;2023-03-15T04:39:13;101037.56;;;16.94;nan
48029;BME280;33808;37.368;127.108;2023-03-15T04:41:42;101010.69;;;17.19;nan
48029;BME280;33808;37.368;127.108;2023-03-15T04:44:12;101008.72;;;16.74;nan
48029;BME280;33808;37.368;127.108;2023-03-15T04:46:44;101007.13;;;16.54;nan
48029;BME280;33808;37.368;127.108;2023-03-15T04:49:14;100995.06;;;15.80;nan
48029;BME280;33808;37.368;127.108;2023-03-15T04:51:44;101025.06;;;15.95;nan
48029;BME280;33808;37.368;127.108;2023-03-15T04:54:13;101007.16;;;15.65;nan
48029;BME280;33808;37.368;127.108;2023-03-15T04:56:43;101004.13;;;15.55;nan
48029;BME280;33808;37.368;127.108;2023-03-15T04:59:13;101007.53;;;15.57;nan
48029;BME280;33808;37.368;127.108;2023-03-15T05:01:42;101015.13;;;15.63;nan
48029;BME280;33808;37.368;127.108;2023-03-15T05:04:12;100976.31;;;16.03;nan
48029;BME280;33808;37.368;127.108;2023-03-15T05:06:42;101010.25;;;15.92;nan
48029;BME280;33808;37.368;127.108;2023-03-15T05:09:11;101006.09;;;15.88;nan
48029;BME280;33808;37.368;127.108;2023-03-15T05:11:46;100995.06;;;16.15;nan
48029;BME280;33808;37.368;127.108;2023-03-15T05:14:16;100970.56;;;15.78;nan
48029;BME280;33808;37.368;127.108;2023-03-15T05:16:46;100997.06;;;15.75;nan
48029;BME280;33808;37.368;127.108;2023-03-15T05:19:17;100988.09;;;15.96;nan
48029;BME280;33808;37.368;127.108;2023-03-15T05:21:46;100998.31;;;15.85;nan
48029;BME280;33808;37.368;127.108;2023-03-15T05:26:45;101007.94;;;15.67;nan
48029;BME280;33808;37.368;127.108;2023-03-15T05:29:15;101018.13;;;15.75;nan
48029;BME280;33808;37.368;127.108;2023-03-15T05:31:45;101007.59;;;15.75;nan
48029;BME280;33808;37.368;127.108;2023-03-15T05:34:14;100993.44;;;15.95;nan
48029;BME280;33808;37.368;127.108;2023-03-15T05:36:44;101014.75;;;16.08;nan
48029;BME280;33808;37.368;127.108;2023-03-15T05:39:14;101012.66;;;15.97;nan
48029;BME280;33808;37.368;127.108;2023-03-15T05:41:44;101036.66;;;15.54;nan
48029;BME280;33808;37.368;127.108;2023-03-15T05:44:14;101020.56;;;15.60;nan
48029;BME280;33808;37.368;127.108;2023-03-15T05:46:44;101011.84;;;15.41;nan
48029;BME280;33808;37.368;127.108;2023-03-15T05:49:14;101016.84;;;15.64;nan
48029;BME280;33808;37.368;127.108;2023-03-15T05:51:44;101015.28;;;15.79;nan
48029;BME280;33808;37.368;127.108;2023-03-15T05:54:13;101015.63;;;14.97;nan
48029;BME280;33808;37.368;127.108;2023-03-15T05:56:43;101030.66;;;14.75;nan
48029;BME280;33808;37.368;127.108;2023-03-15T05:59:13;101028.16;;;14.51;nan
48029;BME280;33808;37.368;127.108;2023-03-15T06:01:42;101034.06;;;14.36;nan
48029;BME280;33808;37.368;127.108;2023-03-15T06:04:12;101029.41;;;14.22;nan
48029;BME280;33808;37.368;127.108;2023-03-15T06:06:42;101041.03;;;13.73;nan
48029;BME280;33808;37.368;127.108;2023-03-15T06:09:12;101048.38;;;13.18;nan
48029;BME280;33808;37.368;127.108;2023-03-15T06:11:42;101061.44;;;13.20;nan
48029;BME280;33808;37.368;127.108;2023-03-15T06:14:12;101068.72;;;13.11;nan
48029;BME280;33808;37.368;127.108;2023-03-15T06:16:42;101068.38;;;13.21;nan
48029;BME280;33808;37.368;127.108;2023-03-15T06:19:12;101080.81;;;12.92;nan
48029;BME280;33808;37.368;127.108;2023-03-15T06:21:41;101061.13;;;12.80;nan
48029;BME280;33808;37.368;127.108;2023-03-15T06:24:11;101091.34;;;12.40;nan
48029;BME280;33808;37.368;127.108;2023-03-15T06:26:41;101090.28;;;12.19;nan
48029;BME280;33808;37.368;127.108;2023-03-15T06:29:11;101091.63;;;12.57;nan
48029;BME280;33808;37.368;127.108;2023-03-15T06:31:41;101083.03;;;12.79;nan
48029;BME280;33808;37.368;127.108;2023-03-15T06:34:11;101081.03;;;12.61;nan
48029;BME280;33808;37.368;127.108;2023-03-15T06:39:13;101070.84;;;11.99;nan
48029;BME280;33808;37.368;127.108;2023-03-15T06:41:43;101089.94;;;12.03;nan
48029;BME280;33808;37.368;127.108;2023-03-15T06:44:12;101084.84;;;11.98;nan
48029;BME280;33808;37.368;127.108;2023-03-15T06:46:42;101041.94;;;12.29;nan
48029;BME280;33808;37.368;127.108;2023-03-15T06:49:12;101076.28;;;12.72;nan
48029;BME280;33808;37.368;127.108;2023-03-15T06:51:41;101080.00;;;12.90;nan
48029;BME280;33808;37.368;127.108;2023-03-15T06:54:13;101121.22;;;12.86;nan
48029;BME280;33808;37.368;127.108;2023-03-15T06:56:42;101050.25;;;12.91;nan
48029;BME280;33808;37.368;127.108;2023-03-15T06:59:12;101092.53;;;12.82;nan
48029;BME280;33808;37.368;127.108;2023-03-15T07:01:42;101086.00;;;12.43;nan
48029;BME280;33808;37.368;127.108;2023-03-15T07:04:11;101086.75;;;12.72;nan
48029;BME280;33808;37.368;127.108;2023-03-15T07:06:41;101066.53;;;12.50;nan
48029;BME280;33808;37.368;127.108;2023-03-15T07:09:11;101085.69;;;12.77;nan
48029;BME280;33808;37.368;127.108;2023-03-15T07:11:41;101079.16;;;12.39;nan
48029;BME280;33808;37.368;127.108;2023-03-15T07:14:10;101084.94;;;12.74;nan
48029;BME280;33808;37.368;127.108;2023-03-15T07:16:40;101084.91;;;12.49;nan
48029;BME280;33808;37.368;127.108;2023-03-15T07:19:09;101077.44;;;12.63;nan
48029;BME280;33808;37.368;127.108;2023-03-15T07:21:39;101075.03;;;12.05;nan
48029;BME280;33808;37.368;127.108;2023-03-15T07:24:09;101086.44;;;12.03;nan
48029;BME280;33808;37.368;127.108;2023-03-15T07:26:39;101091.56;;;12.07;nan
48029;BME280;33808;37.368;127.108;2023-03-15T07:29:08;101086.44;;;11.74;nan
48029;BME280;33808;37.368;127.108;2023-03-15T07:31:38;101106.41;;;11.77;nan
48029;BME280;33808;37.368;127.108;2023-03-15T07:34:08;101101.00;;;11.55;nan
48029;BME280;33808;37.368;127.108;2023-03-15T07:36:37;101099.41;;;11.79;nan
48029;BME280;33808;37.368;127.108;2023-03-15T07:39:07;101080.16;;;12.08;nan
48029;BME280;33808;37.368;127.108;2023-03-15T07:44:06;101120.53;;;12.01;nan
48029;BME280;33808;37.368;127.108;2023-03-15T07:46:36;101122.03;;;11.80;nan
48029;BME280;33808;37.368;127.108;2023-03-15T07:49:06;101118.91;;;11.69;nan
48029;BME280;33808;37.368;127.108;2023-03-15T07:51:36;101131.53;;;11.54;nan
48029;BME280;33808;37.368;127.108;2023-03-15T07:54:05;101135.72;;;11.60;nan
48029;BME280;33808;37.368;127.108;2023-03-15T07:59:04;101139.25;;;11.59;nan
48029;BME280;33808;37.368;127.108;2023-03-15T08:04:03;101153.59;;;11.75;nan
48029;BME280;33808;37.368;127.108;2023-03-15T08:06:33;101150.13;;;11.75;nan
48029;BME280;33808;37.368;127.108;2023-03-15T08:09:03;101143.00;;;11.50;nan
48029;BME280;33808;37.368;127.108;2023-03-15T08:11:33;101154.59;;;11.40;nan
48029;BME280;33808;37.368;127.108;2023-03-15T08:14:03;101157.81;;;11.51;nan
48029;BME280;33808;37.368;127.108;2023-03-15T08:16:32;101164.47;;;11.61;nan
48029;BME280;33808;37.368;127.108;2023-03-15T08:19:02;101161.31;;;11.50;nan
48029;BME280;33808;37.368;127.108;2023-03-15T08:24:01;101168.69;;;11.36;nan
48029;BME280;33808;37.368;127.108;2023-03-15T08:26:31;101177.28;;;11.41;nan
48029;BME280;33808;37.368;127.108;2023-03-15T08:29:00;101176.75;;;11.59;nan
48029;BME280;33808;37.368;127.108;2023-03-15T08:31:30;101183.09;;;11.19;nan
48029;BME280;33808;37.368;127.108;2023-03-15T08:34:00;101182.13;;;11.24;nan
48029;BME280;33808;37.368;127.108;2023-03-15T08:39:00;101171.59;;;11.25;nan
48029;BME280;33808;37.368;127.108;2023-03-15T08:41:30;101187.22;;;11.28;nan
48029;BME280;33808;37.368;127.108;2023-03-15T08:44:00;101173.66;;;11.14;nan
48029;BME280;33808;37.368;127.108;2023-03-15T08:46:30;101189.69;;;11.01;nan
48029;BME280;33808;37.368;127.108;2023-03-15T08:49:03;101199.44;;;10.95;nan
48029;BME280;33808;37.368;127.108;2023-03-15T08:51:33;101185.63;;;10.90;nan
48029;BME280;33808;37.368;127.108;2023-03-15T08:54:03;101190.06;;;10.52;nan
48029;BME280;33808;37.368;127.108;2023-03-15T08:56:33;101185.19;;;10.36;nan
48029;BME280;33808;37.368;127.108;2023-03-15T08:59:02;101193.31;;;10.61;nan
48029;BME280;33808;37.368;127.108;2023-03-15T09:01:33;101154.72;;;10.37;nan
48029;BME280;33808;37.368;127.108;2023-03-15T09:04:02;101202.16;;;10.56;nan
48029;BME280;33808;37.368;127.108;2023-03-15T09:06:32;101201.94;;;10.28;nan
48029;BME280;33808;37.368;127.108;2023-03-15T09:09:02;101192.94;;;10.00;nan
48029;BME280;33808;37.368;127.108;2023-03-15T09:14:01;101226.22;;;9.92;nan
48029;BME280;33808;37.368;127.108;2023-03-15T09:16:31;101200.81;;;9.99;nan
48029;BME280;33808;37.368;127.108;2023-03-15T09:19:00;101195.00;;;9.86;nan
48029;BME280;33808;37.368;127.108;2023-03-15T09:21:30;101202.28;;;9.72;nan
48029;BME280;33808;37.368;127.108;2023-03-15T09:23:59;101196.38;;;9.62;nan
48029;BME280;33808;37.368;127.108;2023-03-15T09:28:58;101199.78;;;9.64;nan
48029;BME280;33808;37.368;127.108;2023-03-15T09:31:28;101192.13;;;9.56;nan
48029;BME280;33808;37.368;127.108;2023-03-15T09:33:57;101210.41;;;9.56;nan
48029;BME280;33808;37.368;127.108;2023-03-15T09:36:27;101206.53;;;9.76;nan
48029;BME280;33808;37.368;127.108;2023-03-15T09:38:57;101202.56;;;9.56;nan
48029;BME280;33808;37.368;127.108;2023-03-15T09:44:11;101205.97;;;9.60;nan
48029;BME280;33808;37.368;127.108;2023-03-15T09:49:38;101201.50;;;9.66;nan
48029;BME280;33808;37.368;127.108;2023-03-15T09:54:59;101209.16;;;9.76;nan
48029;BME280;33808;37.368;127.108;2023-03-15T09:57:34;101218.03;;;9.65;nan
48029;BME280;33808;37.368;127.108;2023-03-15T10:00:17;101211.31;;;9.55;nan
48029;BME280;33808;37.368;127.108;2023-03-15T10:02:59;101212.19;;;9.54;nan
48029;BME280;33808;37.368;127.108;2023-03-15T10:08:07;101216.38;;;9.61;nan
48029;BME280;33808;37.368;127.108;2023-03-15T10:10:48;101224.91;;;9.70;nan
48029;BME280;33808;37.368;127.108;2023-03-15T10:19:31;101238.69;;;9.76;nan
48029;BME280;33808;37.368;127.108;2023-03-15T10:25:10;101254.47;;;9.72;nan
48029;BME280;33808;37.368;127.108;2023-03-15T10:30:25;101273.28;;;9.42;nan
48029;BME280;33808;37.368;127.108;2023-03-15T10:33:05;101279.22;;;9.49;nan
48029;BME280;33808;37.368;127.108;2023-03-15T10:35:41;101270.91;;;9.28;nan
48029;BME280;33808;37.368;127.108;2023-03-15T10:38:16;101284.59;;;9.40;nan
48029;BME280;33808;37.368;127.108;2023-03-15T10:41:04;101293.25;;;9.42;nan
48029;BME280;33808;37.368;127.108;2023-03-15T10:43:36;101292.41;;;9.41;nan
48029;BME280;33808;37.368;127.108;2023-03-15T10:46:20;101294.47;;;9.24;nan
48029;BME280;33808;37.368;127.108;2023-03-15T10:49:09;101304.59;;;9.41;nan
48029;BME280;33808;37.368;127.108;2023-03-15T10:54:22;101294.66;;;9.61;nan
48029;BME280;33808;37.368;127.108;2023-03-15T10:57:12;101283.47;;;9.55;nan
48029;BME280;33808;37.368;127.108;2023-03-15T10:59:59;101303.38;;;9.60;nan
48029;BME280;33808;37.368;127.108;2023-03-15T11:02:35;101301.63;;;9.62;nan
48029;BME280;33808;37.368;127.108;2023-03-15T11:07:56;101321.44;;;9.21;nan
48029;BME280;33808;37.368;127.108;2023-03-15T11:10:28;101327.53;;;9.22;nan
48029;BME280;33808;37.368;127.108;2023-03-15T11:13:21;101347.19;;;8.88;nan
48029;BME280;33808;37.368;127.108;2023-03-15T11:16:04;101328.00;;;8.91;nan
48029;BME280;33808;37.368;127.108;2023-03-15T11:18:45;101355.72;;;8.98;nan
48029;BME280;33808;37.368;127.108;2023-03-15T11:21:16;101368.13;;;8.81;nan
48029;BME280;33808;37.368;127.108;2023-03-15T11:23:49;101331.75;;;8.73;nan
48029;BME280;33808;37.368;127.108;2023-03-15T11:26:22;101338.75;;;8.69;nan
48029;BME280;33808;37.368;127.108;2023-03-15T11:31:33;101330.75;;;8.83;nan
48029;BME280;33808;37.368;127.108;2023-03-15T11:37:03;101357.63;;;8.85;nan
48029;BME280;33808;37.368;127.108;2023-03-15T11:42:25;101359.06;;;8.44;nan
48029;BME280;33808;37.368;127.108;2023-03-15T11:45:02;101374.69;;;8.41;nan
48029;BME280;33808;37.368;127.108;2023-03-15T11:47:50;101368.63;;;8.41;nan
48029;BME280;33808;37.368;127.108;2023-03-15T11:50:21;101375.31;;;8.63;nan
48029;BME280;33808;37.368;127.108;2023-03-15T11:52:52;101375.34;;;8.59;nan
48029;BME280;33808;37.368;127.108;2023-03-15T11:55:26;101348.84;;;8.26;nan
48029;BME280;33808;37.368;127.108;2023-03-15T11:57:56;101373.97;;;8.28;nan
48029;BME280;33808;37.368;127.108;2023-03-15T12:08:49;101428.00;;;8.09;nan
48029;BME280;33808;37.368;127.108;2023-03-15T12:16:40;101401.44;;;8.57;nan
48029;BME280;33808;37.368;127.108;2023-03-15T12:19:15;101410.09;;;8.59;nan
48029;BME280;33808;37.368;127.108;2023-03-15T12:22:10;101421.56;;;8.44;nan
48029;BME280;33808;37.368;127.108;2023-03-15T12:24:45;101417.50;;;8.17;nan
48029;BME280;33808;37.368;127.108;2023-03-15T12:27:18;101410.63;;;8.10;nan
48029;BME280;33808;37.368;127.108;2023-03-15T12:32:28;101485.50;;;7.80;nan
48029;BME280;33808;37.368;127.108;2023-03-15T12:37:44;101448.31;;;7.70;nan
48029;BME280;33808;37.368;127.108;2023-03-15T12:56:29;101507.66;;;7.10;nan
48029;BME280;33808;37.368;127.108;2023-03-15T13:12:07;101526.00;;;6.62;nan
48029;BME280;33808;37.368;127.108;2023-03-15T13:17:34;101532.97;;;6.57;nan
48029;BME280;33808;37.368;127.108;2023-03-15T13:20:24;101529.53;;;6.32;nan
48029;BME280;33808;37.368;127.108;2023-03-15T13:28:45;101531.28;;;6.10;nan
48029;BME280;33808;37.368;127.108;2023-03-15T13:31:27;101552.91;;;6.32;nan
48029;BME280;33808;37.368;127.108;2023-03-15T13:34:18;101531.25;;;6.37;nan
48029;BME280;33808;37.368;127.108;2023-03-15T13:36:57;101557.19;;;6.45;nan
48029;BME280;33808;37.368;127.108;2023-03-15T13:39:30;101558.06;;;6.50;nan
48029;BME280;33808;37.368;127.108;2023-03-15T13:42:03;101551.13;;;6.55;nan
48029;BME280;33808;37.368;127.108;2023-03-15T13:47:02;101559.81;;;6.05;nan
48029;BME280;33808;37.368;127.108;2023-03-15T13:49:33;101561.53;;;6.03;nan
48029;BME280;33808;37.368;127.108;2023-03-15T13:57:17;101551.97;;;5.64;nan
48029;BME280;33808;37.368;127.108;2023-03-15T13:59:52;101586.50;;;5.47;nan
48029;BME280;33808;37.368;127.108;2023-03-15T14:02:46;101573.53;;;5.49;nan
48029;BME280;33808;37.368;127.108;2023-03-15T14:10:57;101561.31;;;5.06;nan
48029;BME280;33808;37.368;127.108;2023-03-15T14:13:34;101581.19;;;5.13;nan
48029;BME280;33808;37.368;127.108;2023-03-15T14:16:14;101670.00;;;4.89;nan
48029;BME280;33808;37.368;127.108;2023-03-15T14:23:48;101581.78;;;4.61;nan
48029;BME280;33808;37.368;127.108;2023-03-15T14:26:20;101680.03;;;4.49;nan
48029;BME280;33808;37.368;127.108;2023-03-15T14:29:01;101582.47;;;4.40;nan
48029;BME280;33808;37.368;127.108;2023-03-15T14:31:39;101685.91;;;4.28;nan
48029;BME280;33808;37.368;127.108;2023-03-15T14:34:33;101586.72;;;4.28;nan
48029;BME280;33808;37.368;127.108;2023-03-15T14:37:06;101601.31;;;4.19;nan
48029;BME280;33808;37.368;127.108;2023-03-15T14:39:40;101591.69;;;4.04;nan
48029;BME280;33808;37.368;127.108;2023-03-15T14:42:10;101589.25;;;4.23;nan
48029;BME280;33808;37.368;127.108;2023-03-15T14:44:40;101600.38;;;4.11;nan
48029;BME280;33808;37.368;127.108;2023-03-15T14:47:14;101614.19;;;4.13;nan
48029;BME280;33808;37.368;127.108;2023-03-15T14:49:44;101633.25;;;4.24;nan
48029;BME280;33808;37.368;127.108;2023-03-15T14:57:15;101622.78;;;4.09;nan
48029;BME280;33808;37.368;127.108;2023-03-15T14:59:44;101628.84;;;4.11;nan
48029;BME280;33808;37.368;127.108;2023-03-15T15:02:15;101633.84;;;3.97;nan
48029;BME280;33808;37.368;127.108;2023-03-15T15:04:46;101639.03;;;3.94;nan
48029;BME280;33808;37.368;127.108;2023-03-15T15:07:16;101745.81;;;3.90;nan
48029;BME280;33808;37.368;127.108;2023-03-15T15:09:49;101649.28;;;3.88;nan
48029;BME280;33808;37.368;127.108;2023-03-15T15:12:19;101650.88;;;3.77;nan
48029;BME280;33808;37.368;127.108;2023-03-15T15:14:48;101646.47;;;3.68;nan
48029;BME280;33808;37.368;127.108;2023-03-15T15:17:18;101658.66;;;3.78;nan
48029;BME280;33808;37.368;127.108;2023-03-15T15:19:48;101655.41;;;3.95;nan
48029;BME280;33808;37.368;127.108;2023-03-15T15:22:17;101634.72;;;3.96;nan
48029;BME280;33808;37.368;127.108;2023-03-15T15:24:48;101670.03;;;3.94;nan
48029;BME280;33808;37.368;127.108;2023-03-15T15:27:17;101687.97;;;3.80;nan
48029;BME280;33808;37.368;127.108;2023-03-15T15:29:47;101680.09;;;3.70;nan
48029;BME280;33808;37.368;127.108;2023-03-15T15:32:17;101663.66;;;3.63;nan
48029;BME280;33808;37.368;127.108;2023-03-15T15:34:47;101675.00;;;3.76;nan
48029;BME280;33808;37.368;127.108;2023-03-15T15:39:46;101687.91;;;3.74;nan
48029;BME280;33808;37.368;127.108;2023-03-15T15:42:15;101779.22;;;3.73;nan
48029;BME280;33808;37.368;127.108;2023-03-15T15:44:45;101689.56;;;3.69;nan
48029;BME280;33808;37.368;127.108;2023-03-15T15:52:13;101694.47;;;3.47;nan
48029;BME280;33808;37.368;127.108;2023-03-15T15:54:42;101709.28;;;3.59;nan
48029;BME280;33808;37.368;127.108;2023-03-15T15:57:14;101717.75;;;3.49;nan
48029;BME280;33808;37.368;127.108;2023-03-15T16:02:15;101731.03;;;3.78;nan
48029;BME280;33808;37.368;127.108;2023-03-15T16:04:50;101727.41;;;3.64;nan
48029;BME280;33808;37.368;127.108;2023-03-15T16:07:20;101734.44;;;3.74;nan
48029;BME280;33808;37.368;127.108;2023-03-15T16:09:54;101735.97;;;3.60;nan
48029;BME280;33808;37.368;127.108;2023-03-15T16:12:25;101743.09;;;3.76;nan
48029;BME280;33808;37.368;127.108;2023-03-15T16:14:56;101731.66;;;3.60;nan
48029;BME280;33808;37.368;127.108;2023-03-15T16:17:26;101837.59;;;3.59;nan